createdAt,value
2022-08-18T00:00:19.994Z,58.59
2022-08-18T00:01:18.848Z,58.59
2022-08-18T00:02:17.867Z,58.49
2022-08-18T00:03:53.581Z,58.39
2022-08-18T00:04:35.151Z,58.39
2022-08-18T00:05:17.810Z,58.59
2022-08-18T00:06:17.814Z,58.59
2022-08-18T00:07:17.820Z,58.59
2022-08-18T00:08:17.816Z,58.69
2022-08-18T00:09:17.811Z,58.59
2022-08-18T00:10:18.679Z,58.59
2022-08-18T00:11:17.823Z,58.39
2022-08-18T00:12:17.816Z,58.39
2022-08-18T00:13:17.816Z,58.69
2022-08-18T00:14:21.706Z,58.59
2022-08-18T00:15:17.817Z,58.30
2022-08-18T00:16:17.828Z,58.30
2022-08-18T00:17:17.827Z,58.39
2022-08-18T00:18:17.832Z,59.07
2022-08-18T00:19:17.848Z,59.07
2022-08-18T00:20:17.822Z,59.07
2022-08-18T00:21:17.829Z,58.88
2022-08-18T00:22:17.836Z,58.88
2022-08-18T00:23:17.823Z,58.88
2022-08-18T00:24:17.829Z,58.78
2022-08-18T00:25:17.830Z,58.69
2022-08-18T00:26:17.840Z,58.78
2022-08-18T00:27:17.833Z,58.59
2022-08-18T00:28:17.842Z,58.69
2022-08-18T00:29:17.826Z,58.78
2022-08-18T00:30:17.882Z,58.78
2022-08-18T00:31:17.836Z,58.88
2022-08-18T00:32:17.832Z,58.88
2022-08-18T00:33:17.832Z,58.69
2022-08-18T00:34:17.848Z,58.98
2022-08-18T00:35:17.831Z,58.78
2022-08-18T00:36:17.854Z,59.17
2022-08-18T00:37:17.839Z,58.98
2022-08-18T00:38:23.573Z,58.98
2022-08-18T00:39:17.852Z,59.07
2022-08-18T00:40:18.008Z,58.98
2022-08-18T00:41:17.847Z,59.17
2022-08-18T00:42:27.594Z,58.85
2022-08-18T00:43:17.848Z,59.46
2022-08-18T00:44:17.853Z,59.27
2022-08-18T00:45:17.862Z,59.07
2022-08-18T00:46:17.862Z,59.14
2022-08-18T00:47:33.046Z,59.17
2022-08-18T00:48:18.806Z,59.17
2022-08-18T00:49:17.852Z,59.14
2022-08-18T00:50:17.847Z,58.98
2022-08-18T00:51:17.855Z,59.27
2022-08-18T00:52:17.858Z,59.05
2022-08-18T00:53:17.852Z,59.36
2022-08-18T00:54:17.853Z,58.98
2022-08-18T00:55:17.865Z,59.36
2022-08-18T00:56:17.859Z,59.46
2022-08-18T00:57:17.865Z,59.46
2022-08-18T00:58:17.862Z,59.07
2022-08-18T00:59:17.859Z,59.05
2022-08-18T01:00:17.866Z,58.95
2022-08-18T01:01:17.945Z,59.36
2022-08-18T01:02:17.867Z,58.98
2022-08-18T01:03:22.297Z,59.07
2022-08-18T01:04:17.869Z,58.95
2022-08-18T01:05:17.862Z,58.88
2022-08-18T01:06:17.871Z,58.88
2022-08-18T01:07:17.863Z,58.95
2022-08-18T01:08:18.744Z,59.72
2022-08-18T01:09:17.869Z,59.56
2022-08-18T01:10:17.870Z,59.53
2022-08-18T01:11:17.881Z,59.82
2022-08-18T01:12:44.242Z,59.53
2022-08-18T01:13:17.874Z,59.53
2022-08-18T01:14:17.870Z,59.63
2022-08-18T01:15:28.747Z,59.56
2022-08-18T01:16:17.876Z,59.53
2022-08-18T01:17:17.876Z,59.72
2022-08-18T01:18:17.891Z,59.53
2022-08-18T01:19:17.880Z,59.66
2022-08-18T01:20:17.885Z,59.63
2022-08-18T01:21:17.877Z,59.63
2022-08-18T01:22:17.882Z,59.43
2022-08-18T01:23:17.897Z,59.53
2022-08-18T01:24:21.710Z,59.63
2022-08-18T01:25:17.883Z,59.63
2022-08-18T01:26:17.880Z,59.33
2022-08-18T01:27:17.926Z,59.82
2022-08-18T01:28:17.890Z,59.43
2022-08-18T01:29:18.671Z,59.63
2022-08-18T01:30:17.896Z,59.43
2022-08-18T01:31:17.887Z,59.43
2022-08-18T01:32:17.904Z,59.53
2022-08-18T01:33:17.897Z,59.72
2022-08-18T01:34:17.900Z,59.63
2022-08-18T01:35:17.900Z,59.43
2022-08-18T01:36:17.893Z,59.33
2022-08-18T01:37:17.903Z,59.33
2022-08-18T01:38:17.907Z,59.53
2022-08-18T01:39:17.887Z,59.33
2022-08-18T01:41:01.835Z,59.53
2022-08-18T01:41:26.991Z,59.43
2022-08-18T01:42:17.995Z,59.43
2022-08-18T01:43:17.909Z,59.43
2022-08-18T01:44:17.911Z,59.33
2022-08-18T01:45:17.914Z,59.33
2022-08-18T01:46:17.905Z,59.33
2022-08-18T01:47:17.900Z,59.63
2022-08-18T01:48:17.910Z,59.82
2022-08-18T01:49:17.909Z,59.53
2022-08-18T01:50:17.908Z,59.72
2022-08-18T01:51:17.901Z,59.72
2022-08-18T01:52:17.909Z,60.30
2022-08-18T01:53:17.920Z,60.01
2022-08-18T01:54:17.910Z,60.11
2022-08-18T01:55:17.913Z,60.11
2022-08-18T01:56:17.905Z,60.11
2022-08-18T01:57:17.906Z,60.11
2022-08-18T01:58:17.912Z,60.01
2022-08-18T01:59:17.915Z,60.11
2022-08-18T02:00:17.918Z,59.91
2022-08-18T02:01:17.978Z,60.11
2022-08-18T02:02:18.409Z,60.21
2022-08-18T02:03:17.922Z,60.21
2022-08-18T02:04:34.321Z,60.01
2022-08-18T02:05:17.920Z,60.11
2022-08-18T02:06:17.922Z,59.98
2022-08-18T02:07:17.927Z,60.11
2022-08-18T02:08:17.916Z,60.01
2022-08-18T02:09:23.944Z,60.01
2022-08-18T02:10:17.921Z,60.01
2022-08-18T02:11:17.926Z,60.21
2022-08-18T02:12:17.919Z,59.89
2022-08-18T02:13:17.931Z,60.01
2022-08-18T02:14:17.929Z,59.91
2022-08-18T02:15:17.928Z,59.89
2022-08-18T02:16:17.931Z,59.82
2022-08-18T02:17:17.937Z,59.91
2022-08-18T02:18:25.755Z,59.91
2022-08-18T02:19:17.930Z,59.91
2022-08-18T02:20:17.950Z,60.11
2022-08-18T02:21:19.099Z,59.82
2022-08-18T02:22:17.935Z,60.11
2022-08-18T02:23:17.927Z,60.30
2022-08-18T02:24:17.927Z,60.21
2022-08-18T02:25:17.934Z,60.57
2022-08-18T02:26:17.931Z,60.40
2022-08-18T02:27:17.937Z,60.30
2022-08-18T02:28:17.934Z,60.40
2022-08-18T02:29:17.939Z,60.37
2022-08-18T02:30:17.943Z,60.30
2022-08-18T02:31:17.939Z,60.50
2022-08-18T02:32:17.939Z,60.08
2022-08-18T02:33:17.942Z,60.66
2022-08-18T02:34:17.943Z,60.47
2022-08-18T02:35:17.948Z,60.37
2022-08-18T02:36:17.933Z,60.57
2022-08-18T02:37:17.946Z,60.66
2022-08-18T02:38:17.936Z,60.57
2022-08-18T02:39:17.938Z,60.85
2022-08-18T02:40:18.061Z,60.66
2022-08-18T02:41:17.949Z,60.57
2022-08-18T02:42:17.950Z,60.57
2022-08-18T02:43:17.943Z,60.66
2022-08-18T02:44:17.943Z,60.75
2022-08-18T02:45:17.952Z,60.75
2022-08-18T02:46:17.949Z,60.75
2022-08-18T02:47:17.940Z,60.85
2022-08-18T02:48:17.944Z,60.75
2022-08-18T02:49:17.952Z,60.85
2022-08-18T02:50:17.962Z,60.95
2022-08-18T02:51:17.949Z,61.05
2022-08-18T02:52:17.979Z,60.66
2022-08-18T02:53:17.948Z,60.66
2022-08-18T02:54:17.945Z,60.75
2022-08-18T02:55:17.952Z,60.75
2022-08-18T02:56:17.950Z,60.57
2022-08-18T02:57:17.962Z,60.66
2022-08-18T02:58:17.958Z,60.57
2022-08-18T02:59:17.958Z,60.85
2022-08-18T03:00:18.983Z,60.95
2022-08-18T03:01:18.036Z,60.85
2022-08-18T03:02:17.963Z,60.75
2022-08-18T03:03:17.957Z,60.95
2022-08-18T03:04:17.963Z,60.66
2022-08-18T03:05:17.964Z,60.95
2022-08-18T03:06:17.972Z,61.05
2022-08-18T03:07:17.976Z,61.53
2022-08-18T03:08:17.989Z,61.63
2022-08-18T03:09:17.962Z,61.33
2022-08-18T03:10:32.678Z,61.33
2022-08-18T03:11:17.964Z,61.40
2022-08-18T03:12:17.969Z,61.72
2022-08-18T03:13:17.972Z,61.40
2022-08-18T03:14:17.980Z,61.60
2022-08-18T03:15:17.960Z,61.69
2022-08-18T03:16:17.974Z,61.40
2022-08-18T03:17:17.965Z,61.60
2022-08-18T03:18:17.977Z,61.40
2022-08-18T03:19:17.958Z,61.50
2022-08-18T03:20:17.970Z,61.60
2022-08-18T03:21:17.969Z,61.89
2022-08-18T03:22:28.083Z,61.60
2022-08-18T03:23:17.983Z,62.18
2022-08-18T03:24:22.684Z,61.89
2022-08-18T03:25:17.978Z,61.89
2022-08-18T03:26:17.969Z,62.08
2022-08-18T03:27:17.970Z,62.08
2022-08-18T03:28:17.975Z,62.18
2022-08-18T03:29:17.968Z,61.89
2022-08-18T03:30:17.975Z,61.98
2022-08-18T03:31:17.971Z,61.98
2022-08-18T03:32:17.974Z,61.98
2022-08-18T03:33:17.964Z,62.08
2022-08-18T03:34:17.962Z,62.18
2022-08-18T03:35:17.973Z,61.89
2022-08-18T03:36:17.976Z,62.27
2022-08-18T03:37:17.979Z,62.27
2022-08-18T03:38:17.969Z,62.27
2022-08-18T03:39:17.977Z,62.15
2022-08-18T03:40:18.071Z,62.37
2022-08-18T03:41:17.973Z,62.24
2022-08-18T03:42:17.975Z,62.47
2022-08-18T03:43:50.357Z,62.27
2022-08-18T03:44:17.966Z,62.37
2022-08-18T03:45:18.270Z,62.37
2022-08-18T03:46:17.973Z,62.37
2022-08-18T03:47:17.968Z,62.53
2022-08-18T03:48:17.973Z,62.37
2022-08-18T03:49:17.973Z,62.44
2022-08-18T03:50:17.981Z,62.15
2022-08-18T03:51:17.979Z,62.18
2022-08-18T03:52:17.979Z,62.44
2022-08-18T03:53:17.985Z,62.53
2022-08-18T03:54:17.981Z,62.24
2022-08-18T03:55:17.989Z,62.24
2022-08-18T03:56:17.974Z,62.34
2022-08-18T03:57:17.969Z,62.05
2022-08-18T03:58:17.974Z,61.95
2022-08-18T03:59:18.066Z,62.34
2022-08-18T04:00:17.984Z,62.15
2022-08-18T04:01:26.401Z,62.15
2022-08-18T04:02:17.975Z,61.95
2022-08-18T04:03:17.987Z,62.44
2022-08-18T04:04:17.977Z,62.24
2022-08-18T04:05:17.979Z,62.44
2022-08-18T04:06:17.981Z,61.95
2022-08-18T04:07:17.981Z,62.24
2022-08-18T04:08:17.968Z,62.44
2022-08-18T04:09:17.999Z,62.44
2022-08-18T04:10:19.510Z,62.92
2022-08-18T04:11:17.975Z,62.92
2022-08-18T04:12:17.988Z,62.63
2022-08-18T04:13:17.973Z,62.82
2022-08-18T04:14:17.978Z,62.92
2022-08-18T04:15:17.985Z,62.92
2022-08-18T04:16:17.986Z,62.82
2022-08-18T04:17:17.982Z,62.73
2022-08-18T04:18:17.982Z,63.02
2022-08-18T04:19:26.333Z,62.53
2022-08-18T04:20:17.978Z,62.92
2022-08-18T04:21:17.977Z,62.73
2022-08-18T04:22:18.219Z,63.11
2022-08-18T04:23:17.986Z,63.02
2022-08-18T04:24:17.986Z,63.02
2022-08-18T04:25:17.972Z,63.08
2022-08-18T04:26:19.282Z,62.79
2022-08-18T04:27:17.972Z,62.92
2022-08-18T04:28:17.984Z,63.08
2022-08-18T04:29:18.002Z,63.18
2022-08-18T04:30:17.991Z,63.08
2022-08-18T04:31:17.980Z,62.98
2022-08-18T04:32:17.980Z,62.92
2022-08-18T04:33:17.987Z,62.89
2022-08-18T04:34:17.970Z,62.70
2022-08-18T04:35:17.977Z,62.89
2022-08-18T04:36:18.742Z,63.28
2022-08-18T04:37:17.983Z,63.18
2022-08-18T04:38:17.986Z,63.37
2022-08-18T04:39:17.981Z,63.37
2022-08-18T04:40:22.833Z,63.66
2022-08-18T04:41:17.977Z,63.28
2022-08-18T04:42:17.977Z,63.28
2022-08-18T04:43:17.972Z,63.56
2022-08-18T04:44:17.977Z,63.66
2022-08-18T04:45:17.983Z,63.56
2022-08-18T04:46:17.977Z,63.66
2022-08-18T04:47:18.202Z,63.28
2022-08-18T04:48:18.031Z,63.47
2022-08-18T04:49:17.967Z,63.37
2022-08-18T04:50:17.967Z,63.47
2022-08-18T04:52:36.184Z,63.66
2022-08-18T04:52:36.335Z,63.66
2022-08-18T04:53:17.986Z,63.56
2022-08-18T04:54:17.967Z,64.14
2022-08-18T04:55:17.974Z,64.05
2022-08-18T04:56:17.987Z,64.24
2022-08-18T04:57:17.985Z,64.24
2022-08-18T04:58:17.971Z,63.95
2022-08-18T04:59:17.974Z,64.14
2022-08-18T05:00:17.973Z,63.95
2022-08-18T05:01:18.039Z,63.95
2022-08-18T05:02:17.977Z,63.76
2022-08-18T05:03:17.963Z,63.85
2022-08-18T05:04:17.970Z,64.11
2022-08-18T05:05:17.982Z,64.31
2022-08-18T05:06:17.977Z,64.21
2022-08-18T05:07:17.975Z,64.21
2022-08-18T05:08:17.970Z,64.11
2022-08-18T05:09:22.959Z,64.14
2022-08-18T05:10:18.096Z,64.24
2022-08-18T05:11:17.963Z,64.21
2022-08-18T05:12:17.980Z,64.31
2022-08-18T05:13:17.971Z,64.21
2022-08-18T05:14:17.971Z,64.14
2022-08-18T05:15:17.978Z,64.31
2022-08-18T05:16:27.184Z,64.21
2022-08-18T05:17:17.960Z,64.21
2022-08-18T05:18:17.963Z,64.05
2022-08-18T05:19:19.434Z,64.21
2022-08-18T05:20:18.207Z,64.01
2022-08-18T05:21:17.965Z,63.76
2022-08-18T05:22:18.399Z,64.05
2022-08-18T05:23:17.959Z,63.66
2022-08-18T05:24:17.958Z,63.76
2022-08-18T05:25:17.959Z,63.66
2022-08-18T05:26:17.969Z,63.18
2022-08-18T05:27:17.965Z,63.37
2022-08-18T05:28:17.963Z,63.28
2022-08-18T05:29:19.847Z,62.92
2022-08-18T05:30:17.963Z,62.73
2022-08-18T05:31:17.959Z,63.11
2022-08-18T05:32:30.356Z,63.11
2022-08-18T05:33:17.981Z,63.11
2022-08-18T05:34:17.966Z,62.53
2022-08-18T05:35:17.973Z,62.34
2022-08-18T05:36:17.964Z,63.11
2022-08-18T05:37:17.966Z,63.31
2022-08-18T05:38:17.961Z,62.82
2022-08-18T05:39:17.957Z,62.92
2022-08-18T05:40:18.029Z,62.92
2022-08-18T05:41:17.971Z,62.63
2022-08-18T05:42:17.978Z,62.63
2022-08-18T05:43:17.978Z,62.95
2022-08-18T05:44:17.966Z,62.53
2022-08-18T05:45:17.964Z,62.53
2022-08-18T05:46:17.959Z,62.37
2022-08-18T05:47:17.968Z,62.27
2022-08-18T05:48:17.966Z,62.27
2022-08-18T05:49:17.967Z,62.27
2022-08-18T05:50:17.981Z,62.27
2022-08-18T05:51:17.981Z,62.95
2022-08-18T05:52:17.977Z,62.73
2022-08-18T05:53:17.977Z,62.92
2022-08-18T05:54:17.966Z,62.92
2022-08-18T05:55:17.966Z,63.50
2022-08-18T05:56:17.971Z,63.76
2022-08-18T05:57:17.970Z,64.24
2022-08-18T05:58:17.977Z,63.85
2022-08-18T05:59:17.966Z,64.14
2022-08-18T06:00:17.974Z,64.72
2022-08-18T06:01:17.964Z,64.40
2022-08-18T06:02:17.971Z,64.89
2022-08-18T06:03:18.097Z,65.47
2022-08-18T06:04:17.994Z,65.08
2022-08-18T06:05:17.969Z,66.01
2022-08-18T06:06:17.964Z,65.66
2022-08-18T06:07:17.969Z,65.75
2022-08-18T06:08:17.966Z,65.34
2022-08-18T06:09:17.969Z,65.82
2022-08-18T06:10:17.964Z,66.30
2022-08-18T06:11:22.374Z,66.11
2022-08-18T06:12:17.964Z,66.30
2022-08-18T06:13:17.966Z,66.30
2022-08-18T06:14:17.957Z,66.30
2022-08-18T06:15:17.968Z,66.30
2022-08-18T06:16:17.961Z,66.20
2022-08-18T06:17:17.963Z,66.88
2022-08-18T06:18:17.963Z,66.97
2022-08-18T06:19:17.965Z,66.75
2022-08-18T06:20:17.964Z,66.66
2022-08-18T06:21:17.954Z,66.66
2022-08-18T06:22:17.960Z,66.56
2022-08-18T06:23:17.965Z,66.66
2022-08-18T06:24:17.958Z,66.75
2022-08-18T06:25:18.026Z,66.85
2022-08-18T06:26:17.955Z,67.33
2022-08-18T06:27:17.946Z,67.14
2022-08-18T06:28:17.952Z,67.14
2022-08-18T06:29:17.953Z,66.85
2022-08-18T06:30:17.950Z,67.14
2022-08-18T06:31:17.944Z,66.94
2022-08-18T06:32:17.948Z,67.23
2022-08-18T06:33:17.942Z,67.23
2022-08-18T06:34:17.949Z,67.33
2022-08-18T06:35:17.953Z,67.23
2022-08-18T06:36:18.772Z,67.04
2022-08-18T06:37:17.950Z,67.04
2022-08-18T06:38:17.952Z,67.14
2022-08-18T06:39:17.936Z,67.14
2022-08-18T06:40:17.999Z,67.04
2022-08-18T06:41:41.541Z,66.94
2022-08-18T06:42:17.933Z,67.14
2022-08-18T06:43:17.944Z,67.04
2022-08-18T06:44:17.936Z,67.14
2022-08-18T06:45:17.928Z,67.14
2022-08-18T06:46:17.945Z,67.04
2022-08-18T06:47:17.934Z,67.14
2022-08-18T06:48:17.924Z,66.94
2022-08-18T06:49:17.924Z,67.23
2022-08-18T06:50:17.929Z,66.94
2022-08-18T06:51:17.931Z,66.94
2022-08-18T06:52:17.919Z,67.04
2022-08-18T06:53:26.806Z,66.94
2022-08-18T06:54:17.914Z,66.94
2022-08-18T06:55:17.920Z,67.14
2022-08-18T06:56:25.780Z,67.04
2022-08-18T06:57:17.926Z,67.23
2022-08-18T06:58:17.921Z,67.23
2022-08-18T06:59:17.922Z,67.04
2022-08-18T07:00:17.914Z,67.33
2022-08-18T07:01:17.942Z,67.33
2022-08-18T07:02:17.910Z,67.14
2022-08-18T07:03:17.907Z,67.14
2022-08-18T07:04:17.918Z,67.23
2022-08-18T07:05:17.910Z,66.94
2022-08-18T07:06:17.915Z,66.94
2022-08-18T07:07:17.907Z,67.04
2022-08-18T07:08:18.430Z,67.14
2022-08-18T07:09:17.910Z,67.04
2022-08-18T07:10:17.905Z,66.85
2022-08-18T07:11:17.911Z,66.85
2022-08-18T07:12:17.894Z,66.94
2022-08-18T07:13:17.905Z,66.94
2022-08-18T07:14:17.893Z,66.85
2022-08-18T07:15:17.899Z,66.85
2022-08-18T07:16:30.184Z,66.88
2022-08-18T07:17:17.900Z,66.94
2022-08-18T07:18:17.890Z,66.85
2022-08-18T07:19:17.923Z,67.23
2022-08-18T07:20:17.895Z,66.85
2022-08-18T07:21:17.885Z,67.27
2022-08-18T07:22:17.891Z,66.94
2022-08-18T07:23:17.886Z,67.17
2022-08-18T07:24:25.830Z,67.04
2022-08-18T07:25:17.901Z,67.17
2022-08-18T07:26:17.881Z,67.27
2022-08-18T07:27:17.891Z,66.78
2022-08-18T07:28:17.876Z,66.85
2022-08-18T07:29:17.884Z,66.94
2022-08-18T07:30:17.881Z,66.97
2022-08-18T07:31:17.931Z,66.94
2022-08-18T07:32:21.126Z,67.17
2022-08-18T07:33:17.874Z,67.17
2022-08-18T07:34:17.879Z,66.97
2022-08-18T07:35:17.879Z,66.97
2022-08-18T07:36:17.883Z,66.97
2022-08-18T07:37:17.885Z,66.88
2022-08-18T07:38:40.728Z,66.97
2022-08-18T07:39:17.874Z,67.17
2022-08-18T07:40:17.970Z,67.36
2022-08-18T07:41:17.864Z,67.17
2022-08-18T07:42:37.288Z,67.36
2022-08-18T07:43:17.860Z,67.07
2022-08-18T07:44:17.854Z,67.17
2022-08-18T07:45:17.856Z,67.17
2022-08-18T07:46:17.858Z,67.43
2022-08-18T07:47:17.859Z,67.17
2022-08-18T07:48:44.317Z,67.43
2022-08-18T07:49:21.867Z,67.46
2022-08-18T07:50:36.204Z,67.27
2022-08-18T07:51:17.864Z,67.27
2022-08-18T07:52:44.041Z,67.36
2022-08-18T07:53:17.856Z,67.36
2022-08-18T07:54:45.345Z,67.36
2022-08-18T07:55:17.857Z,67.27
2022-08-18T07:56:17.863Z,67.46
2022-08-18T07:57:20.280Z,67.27
2022-08-18T07:58:17.851Z,67.27
2022-08-18T07:59:17.847Z,67.46
2022-08-18T08:00:26.738Z,67.27
2022-08-18T08:01:17.892Z,67.46
2022-08-18T08:02:17.920Z,67.27
2022-08-18T08:03:17.837Z,67.27
2022-08-18T08:04:24.989Z,67.27
2022-08-18T08:05:17.837Z,67.17
2022-08-18T08:06:17.839Z,67.27
2022-08-18T08:07:24.308Z,67.36
2022-08-18T08:08:19.037Z,67.17
2022-08-18T08:09:17.832Z,67.17
2022-08-18T08:10:17.831Z,67.36
2022-08-18T08:11:17.836Z,67.17
2022-08-18T08:12:17.830Z,67.17
2022-08-18T08:13:37.007Z,67.17
2022-08-18T08:14:20.639Z,67.36
2022-08-18T08:15:17.831Z,67.17
2022-08-18T08:16:17.826Z,67.17
2022-08-18T08:17:17.830Z,67.27
2022-08-18T08:18:17.835Z,67.65
2022-08-18T08:19:17.826Z,66.97
2022-08-18T08:20:17.822Z,67.36
2022-08-18T08:21:17.827Z,67.27
2022-08-18T08:22:17.812Z,67.17
2022-08-18T08:23:17.815Z,67.27
2022-08-18T08:24:17.819Z,67.27
2022-08-18T08:25:42.826Z,67.46
2022-08-18T08:26:17.828Z,67.55
2022-08-18T08:27:17.811Z,67.75
2022-08-18T08:28:17.825Z,67.75
2022-08-18T08:29:17.804Z,67.75
2022-08-18T08:30:17.818Z,67.75
2022-08-18T08:31:36.713Z,67.65
2022-08-18T08:32:17.814Z,67.65
2022-08-18T08:33:17.816Z,67.65
2022-08-18T08:34:17.815Z,67.55
2022-08-18T08:35:48.818Z,67.55
2022-08-18T08:36:17.811Z,67.07
2022-08-18T08:37:17.806Z,67.65
2022-08-18T08:38:39.967Z,67.36
2022-08-18T08:39:17.811Z,66.97
2022-08-18T08:40:17.868Z,67.75
2022-08-18T08:41:17.809Z,67.17
2022-08-18T08:42:30.175Z,67.36
2022-08-18T08:43:17.803Z,67.36
2022-08-18T08:44:17.789Z,67.17
2022-08-18T08:45:17.807Z,67.36
2022-08-18T08:46:17.799Z,67.36
2022-08-18T08:47:23.037Z,67.27
2022-08-18T08:48:17.799Z,67.27
2022-08-18T08:49:17.787Z,67.17
2022-08-18T08:50:17.791Z,67.17
2022-08-18T08:51:17.781Z,67.36
2022-08-18T08:52:19.094Z,67.46
2022-08-18T08:53:17.785Z,67.36
2022-08-18T08:54:17.784Z,67.17
2022-08-18T08:55:17.777Z,67.36
2022-08-18T08:56:17.816Z,67.27
2022-08-18T08:57:17.787Z,66.97
2022-08-18T08:58:17.788Z,67.65
2022-08-18T08:59:17.777Z,67.55
2022-08-18T09:00:17.945Z,67.65
2022-08-18T09:01:17.844Z,67.55
2022-08-18T09:02:37.973Z,67.75
2022-08-18T09:03:17.773Z,67.75
2022-08-18T09:04:17.790Z,67.65
2022-08-18T09:05:17.773Z,67.65
2022-08-18T09:06:17.773Z,67.55
2022-08-18T09:07:17.769Z,67.65
2022-08-18T09:08:17.766Z,67.55
2022-08-18T09:09:17.774Z,67.46
2022-08-18T09:10:17.833Z,66.97
2022-08-18T09:11:17.768Z,67.27
2022-08-18T09:12:17.766Z,67.36
2022-08-18T09:13:17.770Z,67.27
2022-08-18T09:14:17.763Z,67.36
2022-08-18T09:15:17.759Z,67.27
2022-08-18T09:16:17.765Z,67.27
2022-08-18T09:17:17.766Z,67.17
2022-08-18T09:18:17.765Z,67.17
2022-08-18T09:19:17.758Z,66.97
2022-08-18T09:20:17.778Z,66.97
2022-08-18T09:21:17.752Z,67.17
2022-08-18T09:22:17.766Z,67.17
2022-08-18T09:23:17.758Z,66.97
2022-08-18T09:24:17.756Z,66.88
2022-08-18T09:25:17.759Z,67.07
2022-08-18T09:26:17.758Z,67.27
2022-08-18T09:27:17.744Z,66.78
2022-08-18T09:28:17.762Z,66.69
2022-08-18T09:29:17.750Z,66.82
2022-08-18T09:30:17.743Z,66.82
2022-08-18T09:31:19.439Z,66.72
2022-08-18T09:32:17.749Z,66.53
2022-08-18T09:33:19.100Z,66.72
2022-08-18T09:34:17.747Z,66.53
2022-08-18T09:35:17.739Z,66.72
2022-08-18T09:36:19.947Z,66.82
2022-08-18T09:37:17.755Z,66.72
2022-08-18T09:38:20.569Z,66.91
2022-08-18T09:39:18.507Z,66.91
2022-08-18T09:40:17.823Z,66.72
2022-08-18T09:41:17.798Z,66.82
2022-08-18T09:42:18.869Z,66.91
2022-08-18T09:43:20.262Z,66.91
2022-08-18T09:44:26.456Z,66.91
2022-08-18T09:45:17.754Z,66.91
2022-08-18T09:46:17.734Z,66.91
2022-08-18T09:47:17.739Z,66.14
2022-08-18T09:49:17.734Z,66.33
2022-08-18T09:50:26.779Z,66.24
2022-08-18T09:51:17.820Z,66.24
2022-08-18T09:52:17.735Z,66.24
2022-08-18T09:53:17.752Z,66.33
2022-08-18T09:54:20.864Z,66.14
2022-08-18T09:55:17.730Z,66.24
2022-08-18T09:56:19.685Z,66.24
2022-08-18T09:57:19.413Z,66.33
2022-08-18T09:58:17.739Z,66.43
2022-08-18T09:59:17.723Z,66.33
2022-08-18T10:00:17.725Z,66.53
2022-08-18T10:01:17.800Z,66.24
2022-08-18T10:02:20.088Z,66.43
2022-08-18T10:03:17.725Z,66.24
2022-08-18T10:04:21.645Z,66.14
2022-08-18T10:05:17.733Z,66.53
2022-08-18T10:06:17.740Z,66.43
2022-08-18T10:07:17.744Z,66.33
2022-08-18T10:08:21.325Z,66.33
2022-08-18T10:09:36.302Z,66.27
2022-08-18T10:11:00.136Z,66.46
2022-08-18T10:11:17.719Z,66.33
2022-08-18T10:12:17.711Z,66.14
2022-08-18T10:13:17.714Z,66.46
2022-08-18T10:14:18.361Z,66.33
2022-08-18T10:15:33.222Z,66.17
2022-08-18T10:16:17.714Z,66.43
2022-08-18T10:17:23.703Z,66.08
2022-08-18T10:18:17.716Z,66.27
2022-08-18T10:19:17.722Z,65.98
2022-08-18T10:20:26.101Z,66.17
2022-08-18T10:21:17.709Z,66.17
2022-08-18T10:22:17.705Z,66.36
2022-08-18T10:23:17.708Z,66.27
2022-08-18T10:24:35.016Z,65.88
2022-08-18T10:25:22.649Z,65.88
2022-08-18T10:26:17.718Z,65.88
2022-08-18T10:27:17.707Z,65.30
2022-08-18T10:28:17.706Z,65.40
2022-08-18T10:29:17.707Z,65.30
2022-08-18T10:30:17.712Z,65.69
2022-08-18T10:31:17.723Z,65.69
2022-08-18T10:32:17.704Z,65.50
2022-08-18T10:33:18.617Z,65.50
2022-08-18T10:34:19.207Z,65.50
2022-08-18T10:35:17.696Z,65.50
2022-08-18T10:36:17.706Z,65.40
2022-08-18T10:37:19.441Z,65.69
2022-08-18T10:38:17.695Z,65.69
2022-08-18T10:39:17.717Z,65.98
2022-08-18T10:40:21.182Z,65.59
2022-08-18T10:41:17.703Z,65.59
2022-08-18T10:42:17.703Z,65.69
2022-08-18T10:44:28.645Z,65.69
2022-08-18T10:45:22.093Z,65.69
2022-08-18T10:46:26.630Z,65.59
2022-08-18T10:47:17.698Z,65.20
2022-08-18T10:48:17.693Z,65.40
2022-08-18T10:49:18.256Z,65.14
2022-08-18T10:50:17.699Z,65.30
2022-08-18T10:53:39.241Z,65.24
2022-08-18T10:54:18.364Z,65.24
2022-08-18T10:55:17.706Z,65.14
2022-08-18T10:56:17.697Z,65.14
2022-08-18T10:57:17.705Z,65.05
2022-08-18T10:58:17.703Z,65.34
2022-08-18T10:59:17.710Z,65.43
2022-08-18T11:00:17.749Z,65.24
2022-08-18T11:01:17.698Z,65.14
2022-08-18T11:02:17.707Z,65.43
2022-08-18T11:04:32.746Z,65.34
2022-08-18T11:05:17.699Z,65.14
2022-08-18T11:06:18.199Z,65.34
2022-08-18T11:07:18.155Z,65.24
2022-08-18T11:08:17.691Z,65.14
2022-08-18T11:09:17.700Z,65.34
2022-08-18T11:10:58.020Z,65.14
2022-08-18T11:11:34.161Z,65.34
2022-08-18T11:12:17.699Z,65.14
2022-08-18T11:13:17.697Z,65.14
2022-08-18T11:14:17.689Z,65.14
2022-08-18T11:16:17.685Z,65.11
2022-08-18T11:17:17.691Z,65.05
2022-08-18T11:18:17.692Z,65.43
2022-08-18T11:19:17.692Z,65.34
2022-08-18T11:20:18.054Z,65.43
2022-08-18T11:21:17.691Z,65.24
2022-08-18T11:22:24.265Z,65.53
2022-08-18T11:23:17.689Z,64.95
2022-08-18T11:24:17.689Z,65.05
2022-08-18T11:25:17.688Z,65.05
2022-08-18T11:26:18.334Z,65.05
2022-08-18T11:27:17.696Z,65.05
2022-08-18T11:28:18.430Z,65.05
2022-08-18T11:29:17.690Z,65.24
2022-08-18T11:30:17.909Z,65.14
2022-08-18T11:31:17.692Z,65.05
2022-08-18T11:32:17.983Z,65.05
2022-08-18T11:33:23.250Z,65.34
2022-08-18T11:34:19.872Z,64.76
2022-08-18T11:35:18.524Z,64.66
2022-08-18T11:36:17.688Z,64.76
2022-08-18T11:37:17.689Z,64.76
2022-08-18T11:38:20.941Z,64.95
2022-08-18T11:39:17.691Z,64.85
2022-08-18T11:40:42.490Z,64.95
2022-08-18T11:41:17.955Z,64.76
2022-08-18T11:42:21.834Z,64.76
2022-08-18T11:43:21.386Z,64.76
2022-08-18T11:44:17.687Z,64.66
2022-08-18T11:45:17.683Z,64.59
2022-08-18T11:46:17.688Z,64.76
2022-08-18T11:47:17.772Z,64.79
2022-08-18T11:48:21.057Z,64.40
2022-08-18T11:49:17.681Z,64.31
2022-08-18T11:50:17.688Z,64.21
2022-08-18T11:51:17.699Z,64.31
2022-08-18T11:52:19.610Z,64.31
2022-08-18T11:53:17.679Z,64.11
2022-08-18T11:54:17.700Z,64.11
2022-08-18T11:56:17.700Z,64.11
2022-08-18T11:57:17.696Z,64.01
2022-08-18T11:58:17.687Z,64.01
2022-08-18T11:59:17.689Z,64.11
2022-08-18T12:01:17.687Z,64.01
2022-08-18T12:02:17.694Z,64.01
2022-08-18T12:03:17.682Z,64.11
2022-08-18T12:04:17.684Z,64.21
2022-08-18T12:05:18.102Z,64.21
2022-08-18T12:06:19.349Z,64.11
2022-08-18T12:07:20.827Z,64.01
2022-08-18T12:08:33.565Z,64.11
2022-08-18T12:09:36.919Z,64.21
2022-08-18T12:11:26.885Z,64.40
2022-08-18T12:12:18.290Z,64.31
2022-08-18T12:13:17.686Z,64.31
2022-08-18T12:14:30.613Z,64.31
2022-08-18T12:15:23.819Z,64.31
2022-08-18T12:16:17.694Z,64.11
2022-08-18T12:17:17.688Z,63.82
2022-08-18T12:18:26.089Z,63.73
2022-08-18T12:19:19.061Z,63.92
2022-08-18T12:20:17.686Z,63.73
2022-08-18T12:21:17.696Z,64.01
2022-08-18T12:22:17.800Z,63.82
2022-08-18T12:23:17.687Z,63.92
2022-08-18T12:24:17.682Z,63.82
2022-08-18T12:26:27.219Z,63.92
2022-08-18T12:27:21.771Z,63.82
2022-08-18T12:28:17.684Z,63.82
2022-08-18T12:29:17.677Z,63.92
2022-08-18T12:30:17.690Z,64.01
2022-08-18T12:31:17.681Z,64.01
2022-08-18T12:32:41.362Z,63.92
2022-08-18T12:33:17.685Z,63.92
2022-08-18T12:34:17.999Z,64.01
2022-08-18T12:35:21.758Z,64.31
2022-08-18T12:36:19.006Z,64.01
2022-08-18T12:37:54.390Z,64.11
2022-08-18T12:38:17.687Z,64.11
2022-08-18T12:39:17.692Z,63.92
2022-08-18T12:40:17.802Z,63.53
2022-08-18T12:41:23.408Z,64.21
2022-08-18T12:42:17.721Z,63.82
2022-08-18T12:43:17.690Z,63.82
2022-08-18T12:44:18.293Z,63.82
2022-08-18T12:45:17.680Z,63.63
2022-08-18T12:46:17.682Z,63.63
2022-08-18T12:47:17.687Z,63.63
2022-08-18T12:48:17.693Z,63.92
2022-08-18T12:49:17.694Z,63.63
2022-08-18T12:50:17.695Z,63.63
2022-08-18T12:51:17.705Z,63.63
2022-08-18T12:52:17.951Z,63.56
2022-08-18T12:53:17.712Z,63.53
2022-08-18T12:54:17.694Z,63.37
2022-08-18T12:56:17.683Z,63.76
2022-08-18T12:57:27.698Z,63.24
2022-08-18T12:58:17.698Z,63.43
2022-08-18T12:59:17.705Z,63.63
2022-08-18T13:00:18.725Z,63.73
2022-08-18T13:01:17.860Z,63.76
2022-08-18T13:02:17.696Z,63.34
2022-08-18T13:03:17.696Z,63.24